createdAt,value
2018-06-11T00:00:55.273Z,19.28
2018-06-11T00:01:55.479Z,19.22
2018-06-11T00:02:55.739Z,19.29
2018-06-11T00:03:55.805Z,19.26
2018-06-11T00:04:56.019Z,19.25
2018-06-11T00:05:56.218Z,19.23
2018-06-11T00:06:56.435Z,19.14
2018-06-11T00:07:56.614Z,19.16
2018-06-11T00:08:56.829Z,19.14
2018-06-11T00:09:57.010Z,19.10
2018-06-11T00:10:57.215Z,19.22
2018-06-11T00:11:57.402Z,19.26
2018-06-11T00:12:57.591Z,19.22
2018-06-11T00:13:57.803Z,19.18
2018-06-11T00:14:58.005Z,19.23
2018-06-11T00:15:58.203Z,19.13
2018-06-11T00:16:58.397Z,19.11
2018-06-11T00:17:58.608Z,19.23
2018-06-11T00:18:58.794Z,19.14
2018-06-11T00:19:58.985Z,19.14
2018-06-11T00:20:59.186Z,19.11
2018-06-11T00:21:59.372Z,19.13
2018-06-11T00:22:59.644Z,19.14
2018-06-11T00:23:59.829Z,19.10
2018-06-11T00:25:00.026Z,19.06
2018-06-11T00:26:00.228Z,19.06
2018-06-11T00:27:00.414Z,19.13
2018-06-11T00:28:00.617Z,19.04
2018-06-11T00:29:00.831Z,18.99
2018-06-11T00:30:01.045Z,18.99
2018-06-11T00:31:01.250Z,19.00
2018-06-11T00:33:33.075Z,18.87
2018-06-11T00:34:33.248Z,18.91
2018-06-11T00:35:33.443Z,18.92
2018-06-11T00:36:33.652Z,18.90
2018-06-11T00:37:33.854Z,18.92
2018-06-11T00:38:34.072Z,18.90
2018-06-11T00:39:34.277Z,18.94
2018-06-11T00:40:34.546Z,18.95
2018-06-11T00:41:34.610Z,18.91
2018-06-11T00:42:34.819Z,19.00
2018-06-11T00:43:35.007Z,19.00
2018-06-11T00:44:35.216Z,18.99
2018-06-11T00:45:35.411Z,19.02
2018-06-11T00:46:35.624Z,19.10
2018-06-11T00:47:35.984Z,19.10
2018-06-11T00:48:36.064Z,19.13
2018-06-11T00:49:36.274Z,19.11
2018-06-11T00:52:08.422Z,19.16
2018-06-11T00:53:08.597Z,19.06
2018-06-11T00:54:08.783Z,19.10
2018-06-11T00:55:08.983Z,19.07
2018-06-11T00:56:09.168Z,19.18
2018-06-11T00:57:09.361Z,19.14
2018-06-11T00:58:09.596Z,19.18
2018-06-11T00:59:09.755Z,19.16
2018-06-11T01:00:09.968Z,19.13
2018-06-11T01:01:10.169Z,19.13
2018-06-11T01:02:10.386Z,19.23
2018-06-11T01:03:10.587Z,19.29
2018-06-11T01:04:10.794Z,19.16
2018-06-11T01:05:11.006Z,19.26
2018-06-11T01:06:11.215Z,19.22
2018-06-11T01:07:11.425Z,19.22
2018-06-11T01:08:11.628Z,19.21
2018-06-11T01:09:11.824Z,19.28
2018-06-11T01:10:12.024Z,19.37
2018-06-11T01:11:12.228Z,19.28
2018-06-11T01:12:12.445Z,19.23
2018-06-11T01:13:12.665Z,19.26
2018-06-11T01:14:12.863Z,19.36
2018-06-11T01:16:45.006Z,19.23
2018-06-11T01:17:45.187Z,19.23
2018-06-11T01:18:45.367Z,19.33
2018-06-11T01:19:45.577Z,19.32
2018-06-11T01:20:45.771Z,19.39
2018-06-11T01:21:46.135Z,19.22
2018-06-11T01:22:46.201Z,19.25
2018-06-11T01:23:46.402Z,19.18
2018-06-11T01:24:46.594Z,19.00
2018-06-11T01:25:46.786Z,18.81
2018-06-11T01:26:46.989Z,18.76
2018-06-11T01:27:47.199Z,18.69
2018-06-11T01:28:47.394Z,18.65
2018-06-11T01:29:47.585Z,18.63
2018-06-11T01:30:47.765Z,18.66
2018-06-11T01:31:47.967Z,18.75
2018-06-11T01:32:48.306Z,18.75
2018-06-11T01:33:48.385Z,18.58
2018-06-11T01:34:48.595Z,18.67
2018-06-11T01:35:48.792Z,18.65
2018-06-11T01:36:49.002Z,18.66
2018-06-11T01:37:49.213Z,18.78
2018-06-11T01:38:49.408Z,18.73
2018-06-11T01:39:49.599Z,18.80
2018-06-11T01:40:49.795Z,18.80
2018-06-11T01:41:49.999Z,18.73
2018-06-11T01:42:50.200Z,18.65
2018-06-11T01:43:50.389Z,18.62
2018-06-11T01:44:50.599Z,18.45
2018-06-11T01:45:50.795Z,18.60
2018-06-11T01:46:50.981Z,18.52
2018-06-11T01:47:51.190Z,18.57
2018-06-11T01:48:51.404Z,18.48
2018-06-11T01:49:51.614Z,18.42
2018-06-11T01:50:51.834Z,18.44
2018-06-11T01:51:52.049Z,18.37
2018-06-11T01:52:52.259Z,18.36
2018-06-11T01:53:52.458Z,18.47
2018-06-11T01:54:52.656Z,18.44
2018-06-11T01:55:52.869Z,18.42
2018-06-11T01:56:53.058Z,18.39
2018-06-11T01:57:53.268Z,18.52
2018-06-11T01:58:53.475Z,18.60
2018-06-11T01:59:53.663Z,18.55
2018-06-11T02:00:53.876Z,18.63
2018-06-11T02:01:54.203Z,18.47
2018-06-11T02:02:54.301Z,18.47
2018-06-11T02:03:54.496Z,18.42
2018-06-11T02:04:54.694Z,18.42
2018-06-11T02:05:54.904Z,18.41
2018-06-11T02:06:55.103Z,18.44
2018-06-11T02:07:55.294Z,18.47
2018-06-11T02:08:55.479Z,18.45
2018-06-11T02:09:55.685Z,18.48
2018-06-11T02:12:27.806Z,18.60
2018-06-11T02:13:27.984Z,18.57
2018-06-11T02:14:28.170Z,18.63
2018-06-11T02:17:00.560Z,18.63
2018-06-11T02:18:00.490Z,18.80
2018-06-11T02:19:00.692Z,18.72
2018-06-11T02:20:00.907Z,18.62
2018-06-11T02:21:01.120Z,18.66
2018-06-11T02:22:01.402Z,18.67
2018-06-11T02:23:01.516Z,18.63
2018-06-11T02:24:01.712Z,18.62
2018-06-11T02:25:01.919Z,18.60
2018-06-11T02:26:02.129Z,18.60
2018-06-11T02:27:02.342Z,18.51
2018-06-11T02:28:02.532Z,18.65
2018-06-11T02:29:02.743Z,18.62
2018-06-11T02:30:02.957Z,18.57
2018-06-11T02:31:03.175Z,18.42
2018-06-11T02:32:03.383Z,18.37
2018-06-11T02:33:03.593Z,18.36
2018-06-11T02:34:03.805Z,18.25
2018-06-11T02:35:04.001Z,18.23
2018-06-11T02:36:04.201Z,18.21
2018-06-11T02:37:04.417Z,18.17
2018-06-11T02:38:04.611Z,18.17
2018-06-11T02:39:04.809Z,18.20
2018-06-11T02:40:05.016Z,18.10
2018-06-11T02:41:05.234Z,18.18
2018-06-11T02:42:05.976Z,18.18
2018-06-11T02:43:05.596Z,18.17
2018-06-11T02:44:05.795Z,18.14
2018-06-11T02:45:06.005Z,18.08
2018-06-11T02:46:06.204Z,18.12
2018-06-11T02:48:38.584Z,18.17
2018-06-11T02:49:38.749Z,18.21
2018-06-11T02:50:38.938Z,18.21
2018-06-11T02:51:39.133Z,18.18
2018-06-11T02:52:39.318Z,18.12
2018-06-11T02:53:39.511Z,18.10
2018-06-11T02:54:39.716Z,18.12
2018-06-11T02:55:39.917Z,18.12
2018-06-11T02:56:40.116Z,18.02
2018-06-11T02:57:40.328Z,18.08
2018-06-11T02:58:41.529Z,17.99
2018-06-11T02:59:40.726Z,18.02
2018-06-11T03:00:40.921Z,17.93
2018-06-11T03:01:41.116Z,17.86
2018-06-11T03:02:41.316Z,17.86
2018-06-11T03:03:41.527Z,17.93
2018-06-11T03:04:41.825Z,17.90
2018-06-11T03:05:41.897Z,17.87
2018-06-11T03:06:42.089Z,17.84
2018-06-11T03:07:42.306Z,17.92
2018-06-11T03:08:42.522Z,17.93
2018-06-11T03:09:42.722Z,17.96
2018-06-11T03:10:42.932Z,17.86
2018-06-11T03:11:43.134Z,17.90
2018-06-11T03:12:43.327Z,17.84
2018-06-11T03:13:44.508Z,17.86
2018-06-11T03:14:43.733Z,17.90
2018-06-11T03:15:43.956Z,17.86
2018-06-11T03:16:44.161Z,17.90
2018-06-11T03:17:44.350Z,17.87
2018-06-11T03:18:44.544Z,17.95
2018-06-11T03:19:44.759Z,17.95
2018-06-11T03:20:44.947Z,18.02
2018-06-11T03:21:45.152Z,17.89
2018-06-11T03:22:45.362Z,17.92
2018-06-11T03:23:45.581Z,17.87
2018-06-11T03:24:45.779Z,17.93
2018-06-11T03:25:45.970Z,17.82
2018-06-11T03:26:46.173Z,17.82
2018-06-11T03:27:46.383Z,17.87
2018-06-11T03:28:46.578Z,17.86
2018-06-11T03:29:46.786Z,17.82
2018-06-11T03:30:46.995Z,17.81
2018-06-11T03:31:47.207Z,17.86
2018-06-11T03:32:47.410Z,17.87
2018-06-11T03:33:47.602Z,17.87
2018-06-11T03:34:47.803Z,17.87
2018-06-11T03:35:48.042Z,17.78
2018-06-11T03:36:48.214Z,17.84
2018-06-11T03:37:48.417Z,17.77
2018-06-11T03:38:48.620Z,17.82
2018-06-11T03:39:48.818Z,17.87
2018-06-11T03:40:49.021Z,17.78
2018-06-11T03:41:49.234Z,17.93
2018-06-11T03:42:49.447Z,17.93
2018-06-11T03:43:49.654Z,17.78
2018-06-11T03:44:49.850Z,17.86
2018-06-11T03:45:50.047Z,17.86
2018-06-11T03:46:50.241Z,17.84
2018-06-11T03:47:50.447Z,17.93
2018-06-11T03:48:50.648Z,17.92
2018-06-11T03:49:50.842Z,17.86
2018-06-11T03:50:51.038Z,17.82
2018-06-11T03:51:51.240Z,17.89
2018-06-11T03:52:51.433Z,17.95
2018-06-11T03:53:51.631Z,17.92
2018-06-11T03:54:51.812Z,17.96
2018-06-11T03:55:52.147Z,17.96
2018-06-11T03:56:52.218Z,17.87
2018-06-11T03:57:52.442Z,18.00
2018-06-11T03:58:52.636Z,17.96
2018-06-11T03:59:52.827Z,18.00
2018-06-11T04:00:53.015Z,17.99
2018-06-11T04:01:53.228Z,18.12
2018-06-11T04:02:53.416Z,18.08
2018-06-11T04:03:53.605Z,18.12
2018-06-11T04:04:53.804Z,18.17
2018-06-11T04:05:54.015Z,18.15
2018-06-11T04:06:54.222Z,17.99
2018-06-11T04:07:54.436Z,18.10
2018-06-11T04:08:54.641Z,18.05
2018-06-11T04:09:54.838Z,18.00
2018-06-11T04:10:55.084Z,18.00
2018-06-11T04:11:55.266Z,18.08
2018-06-11T04:12:55.472Z,17.96
2018-06-11T04:13:55.664Z,17.92
2018-06-11T04:14:55.864Z,17.92
2018-06-11T04:15:56.061Z,17.89
2018-06-11T04:16:56.266Z,18.05
2018-06-11T04:17:56.474Z,17.89
2018-06-11T04:20:28.776Z,17.90
2018-06-11T04:21:28.954Z,17.92
2018-06-11T04:22:29.163Z,18.00
2018-06-11T04:23:29.366Z,17.96
2018-06-11T04:24:29.583Z,18.17
2018-06-11T04:25:29.773Z,18.14
2018-06-11T04:26:29.981Z,18.08
2018-06-11T04:27:30.188Z,18.12
2018-06-11T04:28:30.372Z,18.10
2018-06-11T04:29:30.573Z,18.20
2018-06-11T04:30:30.829Z,18.15
2018-06-11T04:31:30.997Z,18.02
2018-06-11T04:32:31.190Z,18.07
2018-06-11T04:33:32.288Z,18.02
2018-06-11T04:34:31.576Z,18.17
2018-06-11T04:35:31.774Z,18.10
2018-06-11T04:36:31.985Z,18.17
2018-06-11T04:37:32.173Z,18.25
2018-06-11T04:38:32.387Z,18.12
2018-06-11T04:39:32.592Z,18.17
2018-06-11T04:40:32.801Z,18.18
2018-06-11T04:41:33.003Z,18.18
2018-06-11T04:44:04.863Z,18.18
2018-06-11T04:45:05.039Z,18.18
2018-06-11T04:46:05.249Z,18.33
2018-06-11T04:47:05.457Z,18.25
2018-06-11T04:48:06.302Z,18.35
2018-06-11T04:49:06.808Z,18.39
2018-06-11T04:50:06.082Z,18.52
2018-06-11T04:51:06.338Z,18.57
2018-06-11T04:52:06.411Z,18.55
2018-06-11T04:53:06.627Z,18.58
2018-06-11T04:54:06.827Z,18.41
2018-06-11T04:55:07.058Z,18.42
2018-06-11T04:56:07.250Z,18.45
2018-06-11T04:57:07.469Z,18.47
2018-06-11T04:58:07.697Z,18.50
2018-06-11T04:59:07.908Z,18.54
2018-06-11T05:00:08.107Z,18.57
2018-06-11T05:01:08.307Z,18.63
2018-06-11T05:02:08.493Z,18.51
2018-06-11T05:03:08.686Z,18.58
2018-06-11T05:04:08.887Z,18.70
2018-06-11T05:05:09.080Z,18.65
2018-06-11T05:06:09.280Z,18.72
2018-06-11T05:07:09.478Z,18.60
2018-06-11T05:08:09.743Z,18.63
2018-06-11T05:09:09.907Z,18.66
2018-06-11T05:10:10.183Z,18.65
2018-06-11T05:11:10.297Z,18.60
2018-06-11T05:12:10.487Z,18.70
2018-06-11T05:13:10.710Z,18.60
2018-06-11T05:14:10.907Z,18.70
2018-06-11T05:15:11.127Z,18.78
2018-06-11T05:16:11.303Z,18.78
2018-06-11T05:17:11.520Z,18.95
2018-06-11T05:18:11.717Z,18.88
2018-06-11T05:19:11.917Z,18.78
2018-06-11T05:20:12.157Z,18.78
2018-06-11T05:21:12.349Z,18.66
2018-06-11T05:22:12.560Z,18.62
2018-06-11T05:23:12.792Z,18.60
2018-06-11T05:24:12.974Z,18.76
2018-06-11T05:25:13.197Z,18.95
2018-06-11T05:26:13.400Z,18.99
2018-06-11T05:27:13.589Z,19.04
2018-06-11T05:28:13.813Z,19.07
2018-06-11T05:29:14.009Z,18.91
2018-06-11T05:30:14.198Z,19.08
2018-06-11T05:31:14.412Z,18.84
2018-06-11T05:32:14.604Z,18.90
2018-06-11T05:33:14.809Z,18.87
2018-06-11T05:34:15.022Z,18.72
2018-06-11T05:35:15.205Z,18.84
2018-06-11T05:36:15.397Z,18.87
2018-06-11T05:37:15.597Z,18.94
2018-06-11T05:38:15.811Z,19.11
2018-06-11T05:39:16.011Z,18.99
2018-06-11T05:40:16.251Z,18.87
2018-06-11T05:41:16.430Z,18.99
2018-06-11T05:42:16.621Z,19.08
2018-06-11T05:43:16.860Z,19.14
2018-06-11T05:44:17.092Z,19.25
2018-06-11T05:45:17.292Z,19.13
2018-06-11T05:46:17.498Z,19.06
2018-06-11T05:47:17.687Z,18.98
2018-06-11T05:48:17.890Z,18.87
2018-06-11T05:49:18.094Z,19.10
2018-06-11T05:50:18.297Z,19.36
2018-06-11T05:51:18.518Z,19.46
2018-06-11T05:52:18.720Z,19.66
2018-06-11T05:53:18.938Z,19.68
2018-06-11T05:54:19.142Z,19.71
2018-06-11T05:55:19.328Z,19.68
2018-06-11T05:57:51.456Z,19.16
2018-06-11T05:58:51.638Z,19.26
2018-06-11T05:59:51.857Z,19.18
2018-06-11T06:00:52.066Z,19.25
2018-06-11T06:01:52.260Z,19.14
2018-06-11T06:02:52.448Z,19.18
2018-06-11T06:03:52.667Z,19.13
2018-06-11T06:04:52.868Z,19.22
2018-06-11T06:05:53.077Z,19.16
2018-06-11T06:06:53.268Z,19.02
2018-06-11T06:07:53.487Z,19.06
2018-06-11T06:08:53.683Z,18.85
2018-06-11T06:09:53.893Z,18.92
2018-06-11T06:10:54.113Z,19.08
2018-06-11T06:11:54.302Z,19.08
2018-06-11T06:12:54.486Z,19.11
2018-06-11T06:13:54.670Z,18.92
2018-06-11T06:14:54.856Z,18.98
2018-06-11T06:15:55.058Z,19.23
2018-06-11T06:16:55.272Z,19.25
2018-06-11T06:17:55.464Z,19.26
2018-06-11T06:18:56.642Z,19.48
2018-06-11T06:19:55.828Z,19.50
2018-06-11T06:20:56.032Z,19.65
2018-06-11T06:21:56.246Z,19.80
2018-06-11T06:22:56.457Z,19.95
2018-06-11T06:23:56.657Z,19.96
2018-06-11T06:24:56.865Z,19.74
2018-06-11T06:25:57.083Z,19.95
2018-06-11T06:26:57.276Z,19.87
2018-06-11T06:27:57.491Z,19.83
2018-06-11T06:28:57.703Z,20.01
2018-06-11T06:29:57.912Z,19.88
2018-06-11T06:30:58.116Z,20.03
2018-06-11T06:31:58.303Z,20.03
2018-06-11T06:32:58.510Z,19.98
2018-06-11T06:33:58.699Z,19.58
2018-06-11T06:34:58.923Z,19.62
2018-06-11T06:35:59.125Z,19.56
2018-06-11T06:36:59.325Z,19.59
2018-06-11T06:37:59.526Z,19.73
2018-06-11T06:38:59.708Z,19.76
2018-06-11T06:39:59.898Z,19.62
2018-06-11T06:41:00.111Z,19.78
2018-06-11T06:42:00.327Z,19.69
2018-06-11T06:43:00.529Z,19.83
2018-06-11T06:44:00.736Z,19.78
2018-06-11T06:45:00.924Z,19.95
2018-06-11T06:46:01.140Z,19.77
2018-06-11T06:47:01.347Z,19.87
2018-06-11T06:48:01.558Z,19.66
2018-06-11T06:49:01.768Z,19.92
2018-06-11T06:50:01.987Z,19.92
2018-06-11T06:51:02.216Z,19.84
2018-06-11T06:52:02.410Z,20.14
2018-06-11T06:53:02.620Z,20.02
2018-06-11T06:54:02.821Z,20.21
2018-06-11T06:55:03.016Z,20.31
2018-06-11T06:56:03.228Z,20.35
2018-06-11T06:57:03.428Z,20.26
2018-06-11T06:58:03.615Z,20.18
2018-06-11T06:59:03.819Z,20.20
2018-06-11T07:00:04.035Z,20.33
2018-06-11T07:01:04.243Z,20.41
2018-06-11T07:02:04.455Z,20.39
2018-06-11T07:03:04.648Z,20.38
2018-06-11T07:04:04.858Z,20.21
2018-06-11T07:05:05.064Z,20.18
2018-06-11T07:06:05.266Z,20.13
2018-06-11T07:08:37.525Z,20.08
2018-06-11T07:09:37.762Z,20.06
2018-06-11T07:10:37.914Z,20.26
2018-06-11T07:11:38.116Z,20.33
2018-06-11T07:12:38.475Z,20.32
2018-06-11T07:13:38.604Z,20.59
2018-06-11T07:14:38.739Z,20.67
2018-06-11T07:15:38.936Z,20.64
2018-06-11T07:16:39.146Z,21.10
2018-06-11T07:17:39.352Z,21.32
2018-06-11T07:18:39.538Z,20.73
2018-06-11T07:19:39.764Z,21.03
2018-06-11T07:20:39.980Z,21.19
2018-06-11T07:21:40.180Z,21.32
2018-06-11T07:22:40.392Z,20.80
2018-06-11T07:23:40.599Z,21.01
2018-06-11T07:24:40.775Z,21.14
2018-06-11T07:25:40.998Z,20.97
2018-06-11T07:26:41.189Z,21.28
2018-06-11T07:27:41.404Z,21.09
2018-06-11T07:28:41.607Z,21.24
2018-06-11T07:29:41.810Z,21.61
2018-06-11T07:30:42.056Z,22.02
2018-06-11T07:31:42.255Z,21.83
2018-06-11T07:32:42.451Z,21.61
2018-06-11T07:33:42.656Z,21.34
2018-06-11T07:34:42.856Z,21.37
2018-06-11T07:35:43.071Z,21.10
2018-06-11T07:36:43.280Z,21.03
2018-06-11T07:37:43.504Z,21.17
2018-06-11T07:38:43.721Z,21.29
2018-06-11T07:39:43.930Z,21.28
2018-06-11T07:40:44.120Z,21.19
2018-06-11T07:41:44.347Z,21.01
2018-06-11T07:42:44.536Z,21.13
2018-06-11T07:43:44.747Z,21.37
2018-06-11T07:44:44.938Z,21.67
2018-06-11T07:45:45.157Z,21.44
2018-06-11T07:46:45.378Z,21.17
2018-06-11T07:47:45.588Z,21.56
2018-06-11T07:48:45.795Z,21.77
2018-06-11T07:49:45.998Z,22.03
2018-06-11T07:50:46.249Z,22.43
2018-06-11T07:51:46.490Z,22.21
2018-06-11T07:52:46.624Z,21.75
2018-06-11T07:53:46.818Z,21.82
2018-06-11T07:54:47.019Z,21.54
2018-06-11T07:55:47.231Z,21.40
2018-06-11T07:56:47.440Z,21.34
2018-06-11T07:57:47.655Z,21.27
2018-06-11T07:58:47.856Z,22.18
2018-06-11T07:59:48.051Z,22.85
2018-06-11T08:00:48.257Z,23.48
2018-06-11T08:01:48.457Z,23.93
2018-06-11T08:02:48.669Z,23.58
2018-06-11T08:03:48.883Z,23.91
2018-06-11T08:04:49.104Z,24.08
2018-06-11T08:05:49.300Z,24.68
2018-06-11T08:06:49.515Z,24.12
2018-06-11T08:07:49.715Z,24.47
2018-06-11T08:08:49.908Z,25.03
2018-06-11T08:09:50.099Z,25.02
2018-06-11T08:10:50.303Z,25.52
2018-06-11T08:11:50.509Z,25.40
2018-06-11T08:12:50.730Z,25.47
2018-06-11T08:13:50.935Z,24.83
2018-06-11T08:14:51.132Z,23.50
2018-06-11T08:15:51.326Z,23.98
2018-06-11T08:16:51.529Z,24.81
2018-06-11T08:17:51.736Z,25.61
2018-06-11T08:18:51.952Z,26.06
2018-06-11T08:19:52.158Z,26.35
2018-06-11T08:20:52.424Z,26.40
2018-06-11T08:21:52.562Z,26.52
2018-06-11T08:22:52.772Z,26.10
2018-06-11T08:23:52.979Z,25.64
2018-06-11T08:24:53.174Z,24.83
2018-06-11T08:25:53.401Z,25.35
2018-06-11T08:26:53.605Z,24.84
2018-06-11T08:27:53.831Z,24.85
2018-06-11T08:28:54.045Z,25.24
2018-06-11T08:29:54.277Z,25.47
2018-06-11T08:30:54.499Z,25.51
2018-06-11T08:31:54.698Z,26.37
2018-06-11T08:32:54.918Z,25.45
2018-06-11T08:33:55.130Z,25.10
2018-06-11T08:34:55.355Z,25.50
2018-06-11T08:35:55.560Z,24.69
2018-06-11T08:36:55.782Z,24.87
2018-06-11T08:37:56.003Z,24.73
2018-06-11T08:38:56.209Z,24.76
2018-06-11T08:39:56.414Z,25.27
2018-06-11T08:40:56.645Z,24.67
2018-06-11T08:41:56.839Z,25.25
2018-06-11T08:42:57.042Z,25.10
2018-06-11T08:43:57.239Z,25.85
2018-06-11T08:44:57.458Z,25.57
2018-06-11T08:45:57.656Z,25.45
2018-06-11T08:46:57.856Z,25.40
2018-06-11T08:47:58.075Z,24.16
2018-06-11T08:50:30.192Z,24.49
2018-06-11T08:51:30.381Z,24.87
2018-06-11T08:54:02.541Z,23.61
2018-06-11T08:55:02.717Z,23.94
2018-06-11T08:56:02.936Z,24.68
2018-06-11T08:57:03.147Z,24.49
2018-06-11T08:58:03.361Z,24.58
2018-06-11T08:59:03.568Z,25.47
2018-06-11T09:00:03.793Z,25.73
2018-06-11T09:01:03.986Z,25.99
2018-06-11T09:02:04.316Z,26.36
2018-06-11T09:03:04.385Z,27.29
2018-06-11T09:04:04.612Z,27.70
2018-06-11T09:05:04.809Z,26.72
2018-06-11T09:06:05.011Z,26.33
2018-06-11T09:07:05.248Z,26.40
2018-06-11T09:08:05.445Z,25.64
2018-06-11T09:09:05.643Z,25.33
2018-06-11T09:10:05.858Z,24.68
2018-06-11T09:11:06.072Z,24.21
2018-06-11T09:12:06.298Z,23.97
2018-06-11T09:13:06.505Z,23.60
2018-06-11T09:14:06.722Z,23.46
2018-06-11T09:16:38.835Z,24.15
2018-06-11T09:17:39.026Z,24.46
2018-06-11T09:18:39.247Z,24.42
2018-06-11T09:19:39.446Z,24.64
2018-06-11T09:20:39.657Z,24.20
2018-06-11T09:21:39.887Z,24.40
2018-06-11T09:22:40.100Z,24.58
2018-06-11T09:23:40.286Z,24.39
2018-06-11T09:24:40.484Z,23.90
2018-06-11T09:25:40.695Z,23.87
2018-06-11T09:26:40.922Z,23.61
2018-06-11T09:27:41.139Z,23.23
2018-06-11T09:28:41.362Z,23.76
2018-06-11T09:29:41.570Z,24.55
2018-06-11T09:30:41.761Z,25.02
2018-06-11T09:31:41.981Z,24.78
2018-06-11T09:32:42.184Z,23.23
2018-06-11T09:33:42.400Z,23.72
2018-06-11T09:34:42.600Z,24.15
2018-06-11T09:35:42.798Z,24.68
2018-06-11T09:36:43.020Z,24.55
2018-06-11T09:37:43.216Z,24.08
2018-06-11T09:38:43.433Z,24.15
2018-06-11T09:41:15.557Z,24.34
2018-06-11T09:42:15.739Z,24.16
2018-06-11T09:43:15.953Z,24.24
2018-06-11T09:44:16.178Z,24.09
2018-06-11T09:45:16.363Z,24.06
2018-06-11T09:46:16.554Z,24.09
2018-06-11T09:47:16.755Z,23.47
2018-06-11T09:48:16.950Z,23.60
2018-06-11T09:49:17.210Z,24.15
2018-06-11T09:50:17.354Z,24.62
2018-06-11T09:51:17.572Z,24.91
2018-06-11T09:52:17.779Z,24.99
2018-06-11T09:53:17.995Z,24.85
2018-06-11T09:54:18.202Z,25.14
2018-06-11T09:55:18.422Z,24.98
2018-06-11T09:56:18.639Z,24.85
2018-06-11T09:57:18.829Z,24.87
2018-06-11T09:58:19.047Z,24.25
2018-06-11T09:59:19.242Z,24.37
2018-06-11T10:00:19.436Z,24.21
2018-06-11T10:01:19.654Z,24.13
2018-06-11T10:02:19.873Z,24.05
2018-06-11T10:03:20.076Z,24.13
2018-06-11T10:04:20.288Z,24.16
2018-06-11T10:05:20.498Z,24.40
2018-06-11T10:07:52.622Z,23.88
2018-06-11T10:08:52.804Z,23.79
2018-06-11T10:09:53.030Z,24.06
2018-06-11T10:10:53.230Z,24.24
2018-06-11T10:11:53.420Z,24.02
2018-06-11T10:12:53.689Z,24.30
2018-06-11T10:13:53.774Z,24.09
2018-06-11T10:14:53.979Z,23.85
2018-06-11T10:15:54.178Z,23.87
2018-06-11T10:16:54.387Z,23.48
2018-06-11T10:17:54.620Z,23.60
2018-06-11T10:18:54.847Z,23.23
2018-06-11T10:19:55.022Z,23.20
2018-06-11T10:20:55.233Z,22.82
2018-06-11T10:21:55.454Z,22.88
2018-06-11T10:22:55.670Z,22.85
2018-06-11T10:23:55.902Z,22.51
2018-06-11T10:24:56.135Z,22.91
2018-06-11T10:25:56.294Z,22.92
2018-06-11T10:26:56.519Z,23.33
2018-06-11T10:27:56.712Z,23.07
2018-06-11T10:28:56.904Z,23.60
2018-06-11T10:29:57.123Z,24.08
2018-06-11T10:30:57.321Z,24.71
2018-06-11T10:31:57.537Z,25.08
2018-06-11T10:32:57.739Z,24.99
2018-06-11T10:33:57.948Z,25.02
2018-06-11T10:34:58.147Z,25.32
2018-06-11T10:35:58.368Z,25.55
2018-06-11T10:36:58.555Z,25.46
2018-06-11T10:37:58.772Z,25.47
2018-06-11T10:38:58.985Z,24.34
2018-06-11T10:39:59.227Z,24.24
2018-06-11T10:40:59.430Z,24.73
2018-06-11T10:41:59.620Z,24.65
2018-06-11T10:42:59.821Z,25.03
2018-06-11T10:44:00.040Z,25.15
2018-06-11T10:45:00.248Z,25.08
2018-06-11T10:46:00.569Z,25.28
2018-06-11T10:47:00.640Z,25.58
2018-06-11T10:48:00.859Z,25.62
2018-06-11T10:49:01.059Z,25.27
2018-06-11T10:50:01.245Z,25.24
2018-06-11T10:51:01.480Z,25.39
2018-06-11T10:52:01.688Z,25.90
2018-06-11T10:53:01.922Z,25.83
2018-06-11T10:54:02.158Z,25.47
2018-06-11T10:55:02.376Z,25.36
2018-06-11T10:56:02.587Z,25.24
2018-06-11T10:57:02.801Z,25.36
2018-06-11T10:58:03.069Z,25.39
2018-06-11T10:59:03.197Z,25.87
2018-06-11T11:00:03.419Z,25.75
2018-06-11T11:01:03.634Z,25.55
2018-06-11T11:02:03.833Z,25.09
2018-06-11T11:03:04.043Z,24.76
2018-06-11T11:04:04.226Z,25.25
2018-06-11T11:05:04.489Z,24.83
2018-06-11T11:06:04.569Z,25.23
2018-06-11T11:07:04.773Z,24.60
2018-06-11T11:08:04.969Z,24.98
2018-06-11T11:09:05.198Z,25.38
2018-06-11T11:10:05.403Z,25.17
2018-06-11T11:11:05.590Z,24.91
2018-06-11T11:12:05.791Z,25.15
2018-06-11T11:13:06.055Z,24.73
2018-06-11T11:14:06.205Z,25.03
2018-06-11T11:15:06.414Z,25.45
2018-06-11T11:16:06.617Z,25.05
2018-06-11T11:17:06.828Z,25.38
2018-06-11T11:18:07.040Z,25.33
2018-06-11T11:19:07.234Z,25.40
2018-06-11T11:20:07.438Z,25.61
2018-06-11T11:21:07.633Z,25.98
2018-06-11T11:22:07.832Z,26.01
2018-06-11T11:23:08.164Z,25.73
2018-06-11T11:24:08.242Z,25.10
2018-06-11T11:25:08.442Z,25.30
2018-06-11T11:26:08.649Z,25.13
2018-06-11T11:27:08.865Z,24.67
2018-06-11T11:28:09.080Z,24.95
2018-06-11T11:29:09.272Z,25.36
2018-06-11T11:30:09.477Z,25.75
2018-06-11T11:31:09.677Z,26.02
2018-06-11T11:32:09.887Z,26.26
2018-06-11T11:33:10.102Z,25.98
2018-06-11T11:34:10.325Z,25.60
2018-06-11T11:36:42.619Z,26.44
2018-06-11T11:37:42.676Z,26.95
2018-06-11T11:38:42.862Z,26.12
2018-06-11T11:39:43.069Z,25.91
2018-06-11T11:40:43.286Z,25.76
2018-06-11T11:41:43.499Z,26.05
2018-06-11T11:42:43.706Z,26.26
2018-06-11T11:43:43.945Z,25.38
2018-06-11T11:44:44.154Z,25.08
2018-06-11T11:45:44.361Z,25.73
2018-06-11T11:46:44.553Z,25.95
2018-06-11T11:47:44.761Z,25.85
2018-06-11T11:48:44.973Z,25.87
2018-06-11T11:49:45.206Z,26.01
2018-06-11T11:50:45.426Z,26.32
2018-06-11T11:51:45.621Z,26.15
2018-06-11T11:52:45.826Z,26.23
2018-06-11T11:55:18.001Z,25.39
2018-06-11T11:56:18.180Z,25.87
2018-06-11T11:57:18.382Z,26.06
2018-06-11T11:58:18.575Z,26.21
2018-06-11T11:59:18.796Z,25.00
2018-06-11T12:00:18.991Z,25.25
2018-06-11T12:01:19.198Z,25.47
2018-06-11T12:02:19.391Z,26.29
2018-06-11T12:03:19.593Z,26.57
2018-06-11T12:04:19.805Z,25.83
2018-06-11T12:05:20.012Z,26.20
2018-06-11T12:06:20.225Z,26.35
2018-06-11T12:08:52.352Z,25.92
2018-06-11T12:09:52.544Z,25.90
2018-06-11T12:10:52.755Z,26.20
2018-06-11T12:11:52.971Z,25.99
2018-06-11T12:12:53.183Z,26.57
2018-06-11T12:13:53.402Z,26.62
2018-06-11T12:14:53.599Z,26.51
2018-06-11T12:15:53.816Z,26.80
2018-06-11T12:16:54.020Z,26.26
2018-06-11T12:17:54.227Z,25.77
2018-06-11T12:18:54.433Z,26.35
2018-06-11T12:19:54.623Z,26.65
2018-06-11T12:20:54.851Z,25.61
2018-06-11T12:21:55.062Z,25.72
2018-06-11T12:22:55.286Z,26.02
2018-06-11T12:23:55.503Z,26.10
2018-06-11T12:24:55.719Z,25.82
2018-06-11T12:25:55.909Z,25.43
2018-06-11T12:26:56.115Z,25.38
2018-06-11T12:27:56.323Z,25.88
2018-06-11T12:28:56.519Z,25.98
2018-06-11T12:29:56.735Z,25.91
2018-06-11T12:30:56.940Z,26.01
2018-06-11T12:31:57.149Z,26.30
2018-06-11T12:32:57.412Z,26.28
2018-06-11T12:33:57.612Z,26.20
2018-06-11T12:34:57.832Z,25.82
2018-06-11T12:35:58.053Z,24.99
2018-06-11T12:36:58.262Z,25.35
2018-06-11T12:37:58.472Z,25.76
2018-06-11T12:38:58.696Z,25.97
2018-06-11T12:39:58.905Z,25.76
2018-06-11T12:40:59.107Z,25.50
2018-06-11T12:41:59.339Z,25.47
2018-06-11T12:42:59.548Z,25.51
2018-06-11T12:43:59.753Z,25.75
2018-06-11T12:44:59.941Z,26.09
2018-06-11T12:46:00.152Z,25.98
2018-06-11T12:47:00.364Z,26.25
2018-06-11T12:48:00.592Z,25.73
2018-06-11T12:49:00.813Z,26.23
2018-06-11T12:50:01.026Z,26.36
2018-06-11T12:51:01.251Z,25.50
2018-06-11T12:52:01.466Z,25.42
2018-06-11T12:53:01.675Z,25.32
2018-06-11T12:54:01.890Z,25.83
2018-06-11T12:55:02.108Z,26.18
2018-06-11T12:56:02.304Z,26.55
2018-06-11T12:57:02.519Z,25.57
2018-06-11T12:58:02.775Z,25.30
2018-06-11T12:59:03.006Z,25.85
2018-06-11T13:00:03.195Z,25.88
2018-06-11T13:01:03.376Z,26.35
2018-06-11T13:02:03.598Z,26.12
2018-06-11T13:03:03.801Z,26.69
2018-06-11T13:04:04.015Z,26.87
2018-06-11T13:05:04.228Z,26.33
2018-06-11T13:06:04.492Z,26.05
2018-06-11T13:07:04.654Z,26.07
2018-06-11T13:08:04.869Z,25.99
2018-06-11T13:09:05.066Z,26.05
2018-06-11T13:11:37.199Z,25.13
2018-06-11T13:12:37.373Z,25.20
2018-06-11T13:13:37.591Z,25.38
2018-06-11T13:14:37.807Z,25.33
2018-06-11T13:15:38.026Z,25.60
2018-06-11T13:16:38.248Z,24.91
2018-06-11T13:17:38.441Z,25.02
2018-06-11T13:18:38.649Z,25.38
2018-06-11T13:19:38.869Z,24.93
2018-06-11T13:20:39.066Z,24.81
2018-06-11T13:21:39.280Z,24.71
2018-06-11T13:22:39.495Z,24.71
2018-06-11T13:23:39.691Z,24.87
2018-06-11T13:24:39.924Z,24.45